Hallsboro, North Carolina
Current Conditions -  °F | °C
As of 9:55 AM on Friday 19 Dec 2014 (Local Time) from KCPC Reporting Station
Clear Clear  
Wind Chill: 47°   Ceiling: Unl
Heat Index: 49°   Visibility: 10mi
Dew Point: 29°   Wind: 6mph
Humidity: 46%   Direction: 40°NE
Pressure: 30.18"   Gusts: NA
Location:  34.32°N, 78.6°W
Report Text: KCPC 191455Z AUTO 04005KT 10SM CLR 10/M01 A3018 RMK AO2 T00961015
Loading
Personal Weather Stations






























Interactive Weather Map New forecast layout! Learn more

10-Day Weather Forecast

Advertisements
Track Severe Weather on mobile